Time;durP1;ratioP1;P1;durP2;ratioP2;P2;SDS_P1;SDS_P2;PMS_P1;PMS_P2;Temp;Humidity;BMP_temperature;BMP_pressure;BME280_temperature;BME280_humidity;BME280_pressure;Samples;Min_cycle;Max_cycle;Signal;HPM_P1;HPM_P2
2022/10/01 00:01:10;;;;;;;6.43;5.83;;;;;;;;;;5058267;28;20231;-73
2022/10/01 00:03:35;;;;;;;5.47;4.97;;;;;;;;;;5036780;28;20209;-73
2022/10/01 00:06:02;;;;;;;7.23;5.30;;;;;;;;;;5037987;28;20183;-73
2022/10/01 00:08:28;;;;;;;5.73;5.20;;;;;;;;;;5051630;28;20185;-73
2022/10/01 00:10:53;;;;;;;6.17;5.53;;;;;;;;;;5048607;28;20180;-73
2022/10/01 00:13:19;;;;;;;5.87;5.27;;;;;;;;;;5065859;28;20189;-73
2022/10/01 00:15:44;;;;;;;7.50;5.77;;;;;;;;;;5040163;28;20171;-73
2022/10/01 00:18:10;;;;;;;5.73;4.90;;;;;;;;;;5051292;28;20464;-73
2022/10/01 00:20:39;;;;;;;5.93;5.10;;;;;;;;;;5043470;28;20204;-73
2022/10/01 00:23:04;;;;;;;6.90;5.30;;;;;;;;;;5049147;28;20286;-73
2022/10/01 00:25:29;;;;;;;5.07;4.67;;;;;;;;;;5038599;28;20179;-73
2022/10/01 00:27:55;;;;;;;5.63;5.13;;;;;;;;;;5046859;28;20177;-73
2022/10/01 00:30:20;;;;;;;6.43;5.80;;;;;;;;;;5064176;28;20239;-73
2022/10/01 00:32:45;;;;;;;5.43;4.57;;;;;;;;;;5050173;28;20258;-73
2022/10/01 00:35:11;;;;;;;5.97;4.90;;;;;;;;;;5048423;28;20184;-73
2022/10/01 00:37:36;;;;;;;5.73;4.90;;;;;;;;;;5045466;28;20191;-73
2022/10/01 00:40:06;;;;;;;5.70;4.67;;;;;;;;;;5044345;28;20242;-73
2022/10/01 00:42:31;;;;;;;5.03;4.53;;;;;;;;;;5044639;28;20181;-73
2022/10/01 00:44:57;;;;;;;5.93;4.73;;;;;;;;;;5042364;28;20229;-73
2022/10/01 00:47:32;;;;;;;4.70;4.30;;;;;;;;;;5050171;28;20196;-73
2022/10/01 00:50:05;;;;;;;5.40;4.90;;;;;;;;;;5044355;28;20182;-73
2022/10/01 00:52:32;;;;;;;5.13;4.27;;;;;;;;;;5048989;28;20188;-73
2022/10/01 00:55:00;;;;;;;4.23;3.83;;;;;;;;;;5050919;28;20236;-73
2022/10/01 00:57:25;;;;;;;5.47;4.30;;;;;;;;;;5039935;28;20244;-73
2022/10/01 00:59:52;;;;;;;4.80;4.30;;;;;;;;;;5037972;28;20207;-73
2022/10/01 01:02:17;;;;;;;4.37;3.97;;;;;;;;;;5045904;28;20270;-73
2022/10/01 01:04:43;;;;;;;5.93;4.23;;;;;;;;;;5045923;28;20259;-73
2022/10/01 01:07:08;;;;;;;7.03;4.50;;;;;;;;;;5038568;28;20173;-73
2022/10/01 01:09:39;;;;;;;3.90;3.60;;;;;;;;;;5050138;28;20178;-73
2022/10/01 01:12:07;;;;;;;5.27;4.00;;;;;;;;;;5052510;28;20319;-73
2022/10/01 01:14:41;;;;;;;6.77;4.37;;;;;;;;;;5047696;28;20181;-73
2022/10/01 01:17:10;;;;;;;4.43;3.90;;;;;;;;;;5045227;28;20180;-73
2022/10/01 01:19:51;;;;;;;4.43;4.03;;;;;;;;;;5049558;28;20208;-73
2022/10/01 01:22:19;;;;;;;5.30;4.80;;;;;;;;;;5045451;28;20183;-73
2022/10/01 01:24:54;;;;;;;4.37;3.97;;;;;;;;;;5062429;28;20186;-73
2022/10/01 01:27:20;;;;;;;4.10;3.70;;;;;;;;;;5045894;28;20206;-73
2022/10/01 01:30:00;;;;;;;4.23;3.83;;;;;;;;;;5046516;28;20214;-73
2022/10/01 01:32:27;;;;;;;4.43;3.97;;;;;;;;;;5046175;28;20237;-73
2022/10/01 01:34:54;;;;;;;4.27;3.87;;;;;;;;;;5046644;28;20192;-73
2022/10/01 01:37:21;;;;;;;4.30;3.93;;;;;;;;;;5059562;28;20181;-73
2022/10/01 01:39:49;;;;;;;3.90;3.60;;;;;;;;;;5050806;28;20250;-73
2022/10/01 01:42:20;;;;;;;4.47;3.47;;;;;;;;;;5047390;28;20185;-73
2022/10/01 01:44:46;;;;;;;4.10;3.63;;;;;;;;;;5042405;28;20182;-73
2022/10/01 01:47:12;;;;;;;4.80;3.60;;;;;;;;;;5057116;28;20248;-73
2022/10/01 01:49:38;;;;;;;4.93;3.80;;;;;;;;;;5039345;28;20267;-73
2022/10/01 01:52:12;;;;;;;4.27;3.87;;;;;;;;;;5050658;28;20275;-73
2022/10/01 01:54:38;;;;;;;3.50;3.20;;;;;;;;;;5056596;28;20233;-73
2022/10/01 01:57:03;;;;;;;5.80;3.63;;;;;;;;;;5051667;28;20183;-73
2022/10/01 01:59:30;;;;;;;3.73;3.10;;;;;;;;;;5050452;28;20204;-73
2022/10/01 02:01:57;;;;;;;4.47;4.07;;;;;;;;;;5061164;28;20208;-73
2022/10/01 02:04:22;;;;;;;4.87;3.70;;;;;;;;;;5060100;28;20208;-73
2022/10/01 02:06:53;;;;;;;6.00;3.97;;;;;;;;;;5043144;28;20167;-73
2022/10/01 02:09:27;;;;;;;6.70;3.80;;;;;;;;;;5041236;28;20195;-73
2022/10/01 02:12:23;;;;;;;4.43;3.23;;;;;;;;;;5057355;28;20187;-73
2022/10/01 02:14:53;;;;;;;4.60;3.40;;;;;;;;;;5050439;28;20195;-73
2022/10/01 02:17:36;;;;;;;5.10;4.20;;;;;;;;;;5040978;28;20271;-73
2022/10/01 02:20:07;;;;;;;3.70;3.40;;;;;;;;;;5061886;28;20208;-73
2022/10/01 02:22:32;;;;;;;3.80;3.50;;;;;;;;;;5040803;28;20221;-73
2022/10/01 02:25:00;;;;;;;3.63;3.33;;;;;;;;;;5046610;28;20485;-73
2022/10/01 02:27:25;;;;;;;3.77;3.47;;;;;;;;;;5045202;28;20176;-73
2022/10/01 02:29:52;;;;;;;3.35;3.08;;;;;;;;;;5050124;28;20187;-73
2022/10/01 02:32:18;;;;;;;3.83;3.23;;;;;;;;;;5047520;28;20188;-73
2022/10/01 02:34:44;;;;;;;3.60;3.30;;;;;;;;;;5058417;28;20176;-73
2022/10/01 02:37:10;;;;;;;3.20;3.00;;;;;;;;;;5037157;28;20215;-73
2022/10/01 02:39:37;;;;;;;3.20;3.00;;;;;;;;;;5041145;28;20268;-73
2022/10/01 02:42:03;;;;;;;6.67;3.07;;;;;;;;;;5047858;28;20291;-73
2022/10/01 02:44:36;;;;;;;3.13;2.83;;;;;;;;;;5047492;28;20191;-73
2022/10/01 02:47:06;;;;;;;3.20;2.93;;;;;;;;;;5042118;28;20185;-73
2022/10/01 02:49:32;;;;;;;4.30;3.20;;;;;;;;;;5040915;28;20263;-73
2022/10/01 02:52:16;;;;;;;3.07;2.87;;;;;;;;;;5040240;28;20280;-73
2022/10/01 02:54:44;;;;;;;2.77;2.47;;;;;;;;;;5039753;28;20231;-73
2022/10/01 02:57:25;;;;;;;3.00;2.80;;;;;;;;;;5040989;28;20267;-73
2022/10/01 02:59:51;;;;;;;8.73;3.67;;;;;;;;;;5035369;28;20210;-73
2022/10/01 03:02:16;;;;;;;4.33;3.10;;;;;;;;;;5045999;28;20192;-73
2022/10/01 03:04:42;;;;;;;3.77;3.37;;;;;;;;;;5043595;28;20261;-73
2022/10/01 03:07:07;;;;;;;3.33;2.70;;;;;;;;;;5034478;28;20168;-73
2022/10/01 03:09:33;;;;;;;3.43;3.13;;;;;;;;;;5062882;28;20189;-73
2022/10/01 03:11:59;;;;;;;3.70;2.70;;;;;;;;;;5052405;28;20192;-73
2022/10/01 03:14:24;;;;;;;3.83;3.00;;;;;;;;;;5045855;28;20174;-73
2022/10/01 03:16:53;;;;;;;3.40;3.10;;;;;;;;;;5044710;28;20184;-73
2022/10/01 03:19:18;;;;;;;2.70;2.50;;;;;;;;;;5048962;28;20208;-73
2022/10/01 03:21:43;;;;;;;2.97;2.77;;;;;;;;;;5047002;28;20187;-73
2022/10/01 03:24:09;;;;;;;3.17;2.87;;;;;;;;;;5041293;28;20178;-73
2022/10/01 03:26:35;;;;;;;2.87;2.67;;;;;;;;;;5038798;28;20270;-73
2022/10/01 03:29:00;;;;;;;2.60;2.40;;;;;;;;;;5041834;28;20177;-73
2022/10/01 03:31:25;;;;;;;2.80;2.30;;;;;;;;;;5033630;28;20199;-73
2022/10/01 03:33:50;;;;;;;2.43;2.23;;;;;;;;;;5046693;28;20176;-73
2022/10/01 03:36:16;;;;;;;2.17;1.97;;;;;;;;;;5052971;28;20179;-73
2022/10/01 03:38:41;;;;;;;1.97;1.87;;;;;;;;;;5047666;28;20176;-73
2022/10/01 03:41:06;;;;;;;2.17;1.97;;;;;;;;;;5047302;28;20211;-73
2022/10/01 03:43:31;;;;;;;2.63;2.23;;;;;;;;;;5048221;28;20180;-73
2022/10/01 03:45:56;;;;;;;2.30;2.10;;;;;;;;;;5047580;28;20185;-73
2022/10/01 03:48:22;;;;;;;3.17;2.40;;;;;;;;;;5044495;28;20196;-73
2022/10/01 03:50:52;;;;;;;2.97;2.27;;;;;;;;;;5043834;28;20181;-73
2022/10/01 03:53:17;;;;;;;2.53;2.33;;;;;;;;;;5051918;28;20215;-73
2022/10/01 03:55:42;;;;;;;2.47;2.07;;;;;;;;;;5049508;28;20209;-73
2022/10/01 03:58:08;;;;;;;2.80;2.50;;;;;;;;;;5052877;28;20218;-73
2022/10/01 04:00:33;;;;;;;2.40;2.20;;;;;;;;;;5039324;28;20203;-73
2022/10/01 04:02:58;;;;;;;2.00;1.90;;;;;;;;;;5044341;28;20188;-73
2022/10/01 04:05:24;;;;;;;2.30;2.10;;;;;;;;;;5043202;28;20182;-73
2022/10/01 04:07:49;;;;;;;2.97;1.93;;;;;;;;;;5051978;28;20178;-73
2022/10/01 04:10:15;;;;;;;2.67;2.47;;;;;;;;;;5038148;28;20178;-73
2022/10/01 04:12:40;;;;;;;2.67;1.87;;;;;;;;;;5041260;28;20192;-73
2022/10/01 04:15:05;;;;;;;2.37;2.17;;;;;;;;;;5047550;28;20184;-73
2022/10/01 04:17:30;;;;;;;3.07;2.10;;;;;;;;;;5041451;28;20189;-73
2022/10/01 04:19:56;;;;;;;1.83;1.73;;;;;;;;;;5045027;28;20208;-73
2022/10/01 04:22:21;;;;;;;2.33;2.13;;;;;;;;;;5041733;28;20179;-73
2022/10/01 04:24:46;;;;;;;1.83;1.70;;;;;;;;;;5043145;28;20178;-73
2022/10/01 04:27:12;;;;;;;2.20;1.87;;;;;;;;;;5048921;28;20189;-73
2022/10/01 04:29:37;;;;;;;3.73;2.17;;;;;;;;;;5042727;28;20219;-73
2022/10/01 04:32:02;;;;;;;2.57;1.93;;;;;;;;;;5041230;28;20332;-73
2022/10/01 04:37:12;;;;;;;3.57;2.03;;;;;;;;;;5051334;28;20193;-73
2022/10/01 04:39:37;;;;;;;1.93;1.83;;;;;;;;;;5042364;28;20212;-73
2022/10/01 04:42:02;;;;;;;2.70;2.27;;;;;;;;;;5050486;28;20186;-73
2022/10/01 04:44:30;;;;;;;2.57;1.80;;;;;;;;;;5050578;28;20262;-73
2022/10/01 04:46:55;;;;;;;2.73;2.10;;;;;;;;;;5040132;28;20204;-73
2022/10/01 04:49:20;;;;;;;2.10;1.90;;;;;;;;;;5045982;28;20226;-73
2022/10/01 04:51:45;;;;;;;2.33;1.87;;;;;;;;;;5054380;28;20189;-73
2022/10/01 04:54:11;;;;;;;1.90;1.80;;;;;;;;;;5043079;28;20231;-73
2022/10/01 04:56:36;;;;;;;2.73;1.50;;;;;;;;;;5067783;28;20254;-73
2022/10/01 04:59:01;;;;;;;3.20;1.80;;;;;;;;;;5062409;28;20508;-73
2022/10/01 05:01:26;;;;;;;2.87;1.93;;;;;;;;;;5047307;28;20169;-73
2022/10/01 05:03:51;;;;;;;2.00;1.80;;;;;;;;;;5044583;28;20198;-73
2022/10/01 05:06:16;;;;;;;1.70;1.60;;;;;;;;;;5040581;28;20180;-73
2022/10/01 05:08:42;;;;;;;3.47;3.20;;;;;;;;;;5040063;28;20280;-73
2022/10/01 05:11:07;;;;;;;1.77;1.67;;;;;;;;;;5049169;28;20171;-73
2022/10/01 05:13:32;;;;;;;1.70;1.60;;;;;;;;;;5043964;28;20268;-73
2022/10/01 05:15:57;;;;;;;2.17;1.80;;;;;;;;;;5041618;28;20176;-73
2022/10/01 05:18:23;;;;;;;2.10;1.90;;;;;;;;;;5044763;28;20189;-73
2022/10/01 05:20:48;;;;;;;1.97;1.73;;;;;;;;;;5041605;28;20200;-73
2022/10/01 05:23:13;;;;;;;1.60;1.50;;;;;;;;;;5042286;28;20315;-73
2022/10/01 05:25:39;;;;;;;2.90;1.87;;;;;;;;;;5043169;28;20187;-73
2022/10/01 05:28:04;;;;;;;1.60;1.50;;;;;;;;;;5046275;28;20176;-73
2022/10/01 05:30:29;;;;;;;1.83;1.73;;;;;;;;;;5057750;28;20188;-73
2022/10/01 05:32:55;;;;;;;2.20;2.00;;;;;;;;;;5045420;28;20499;-73
2022/10/01 05:35:21;;;;;;;2.00;1.90;;;;;;;;;;5042462;28;20181;-73
2022/10/01 05:37:46;;;;;;;2.20;2.00;;;;;;;;;;5041787;28;20235;-73
2022/10/01 05:40:11;;;;;;;2.67;1.77;;;;;;;;;;5041520;28;20206;-73
2022/10/01 05:42:36;;;;;;;2.80;2.30;;;;;;;;;;5051983;28;20178;-73
2022/10/01 05:45:02;;;;;;;3.60;1.90;;;;;;;;;;5041015;28;20171;-73
2022/10/01 05:47:27;;;;;;;2.40;2.20;;;;;;;;;;5040704;28;20178;-73
2022/10/01 05:49:52;;;;;;;2.47;2.00;;;;;;;;;;5037324;28;20186;-73
2022/10/01 05:52:17;;;;;;;2.77;2.30;;;;;;;;;;5035937;28;20236;-74
2022/10/01 05:54:42;;;;;;;2.00;1.90;;;;;;;;;;5039128;28;20258;-74
2022/10/01 05:57:08;;;;;;;2.30;2.10;;;;;;;;;;5040156;28;20179;-74
2022/10/01 05:59:33;;;;;;;2.80;2.17;;;;;;;;;;5046393;28;20287;-74
2022/10/01 06:01:59;;;;;;;2.23;2.03;;;;;;;;;;5043854;28;20312;-74
2022/10/01 06:04:24;;;;;;;2.87;2.33;;;;;;;;;;5048709;28;20174;-74
2022/10/01 06:06:49;;;;;;;2.67;2.17;;;;;;;;;;5041565;28;20176;-74
2022/10/01 06:09:14;;;;;;;2.07;1.60;;;;;;;;;;5046160;28;20215;-74
2022/10/01 06:11:40;;;;;;;2.63;1.87;;;;;;;;;;5042565;28;20199;-74
2022/10/01 06:14:06;;;;;;;2.67;2.43;;;;;;;;;;5048311;28;20203;-74
2022/10/01 06:16:31;;;;;;;4.10;2.30;;;;;;;;;;5047948;28;20178;-74
2022/10/01 06:18:56;;;;;;;3.13;2.70;;;;;;;;;;5061787;28;20182;-73
2022/10/01 06:21:25;;;;;;;2.53;2.23;;;;;;;;;;5046712;28;20184;-74
2022/10/01 06:23:51;;;;;;;2.23;2.10;;;;;;;;;;5048842;28;20211;-74
2022/10/01 06:26:17;;;;;;;1.90;1.60;;;;;;;;;;5037622;28;20174;-74
2022/10/01 06:28:42;;;;;;;2.00;1.90;;;;;;;;;;5040206;28;20275;-74
2022/10/01 06:31:07;;;;;;;1.73;1.63;;;;;;;;;;5044931;28;20184;-73
2022/10/01 06:33:32;;;;;;;2.20;1.83;;;;;;;;;;5038804;28;20242;-74
2022/10/01 06:35:58;;;;;;;2.60;2.07;;;;;;;;;;5044248;28;20181;-74
2022/10/01 06:38:25;;;;;;;2.20;2.00;;;;;;;;;;5042168;28;20349;-73
2022/10/01 06:40:54;;;;;;;2.20;2.00;;;;;;;;;;5044613;28;20313;-74
2022/10/01 06:43:20;;;;;;;4.57;4.27;;;;;;;;;;5056754;28;20168;-74
2022/10/01 06:45:45;;;;;;;2.10;2.00;;;;;;;;;;5045568;28;20186;-73
2022/10/01 06:48:12;;;;;;;2.97;2.30;;;;;;;;;;5045255;28;20177;-74
2022/10/01 06:50:38;;;;;;;2.03;1.83;;;;;;;;;;5046216;28;20175;-73
2022/10/01 06:53:03;;;;;;;1.87;1.73;;;;;;;;;;5042986;28;20209;-74
2022/10/01 06:55:30;;;;;;;1.90;1.77;;;;;;;;;;5044165;28;20225;-74
2022/10/01 06:57:57;;;;;;;2.40;2.20;;;;;;;;;;5044309;28;20214;-73
2022/10/01 07:00:23;;;;;;;2.13;1.97;;;;;;;;;;5038649;28;20300;-73
2022/10/01 07:02:48;;;;;;;2.87;1.73;;;;;;;;;;5037104;28;20319;-73
2022/10/01 07:05:13;;;;;;;1.70;1.60;;;;;;;;;;5041860;28;20264;-73
2022/10/01 07:07:39;;;;;;;1.80;1.70;;;;;;;;;;5040343;28;20253;-73
2022/10/01 07:10:05;;;;;;;3.27;1.97;;;;;;;;;;5045829;28;20294;-74
2022/10/01 07:12:30;;;;;;;1.60;1.50;;;;;;;;;;5044504;28;20178;-73
2022/10/01 07:14:55;;;;;;;1.97;1.77;;;;;;;;;;5035956;28;20188;-74
2022/10/01 07:17:21;;;;;;;2.33;2.13;;;;;;;;;;5045738;28;20276;-73
2022/10/01 07:19:46;;;;;;;2.70;1.97;;;;;;;;;;5057877;28;20204;-73
2022/10/01 07:22:11;;;;;;;1.77;1.67;;;;;;;;;;5042815;28;20172;-74
2022/10/01 07:24:37;;;;;;;1.80;1.70;;;;;;;;;;5034241;28;20188;-73
2022/10/01 07:27:02;;;;;;;1.80;1.70;;;;;;;;;;5049902;28;20327;-74
2022/10/01 07:29:30;;;;;;;1.80;1.70;;;;;;;;;;5039075;28;20188;-73
2022/10/01 07:31:58;;;;;;;2.40;1.70;;;;;;;;;;5038822;28;20199;-74
2022/10/01 07:34:24;;;;;;;2.50;1.83;;;;;;;;;;5046046;28;20443;-74
2022/10/01 07:36:49;;;;;;;2.17;1.87;;;;;;;;;;5042654;28;20182;-74
2022/10/01 07:39:14;;;;;;;1.80;1.70;;;;;;;;;;5062498;28;20363;-74
2022/10/01 07:41:41;;;;;;;1.90;1.80;;;;;;;;;;5042688;28;20196;-74
2022/10/01 07:44:06;;;;;;;1.70;1.60;;;;;;;;;;5044723;28;20187;-74
2022/10/01 07:46:31;;;;;;;1.70;1.60;;;;;;;;;;5038196;28;20192;-74
2022/10/01 07:48:57;;;;;;;1.50;1.40;;;;;;;;;;5041638;28;20172;-74
2022/10/01 07:51:23;;;;;;;1.57;1.47;;;;;;;;;;5057390;28;20184;-74
2022/10/01 07:53:49;;;;;;;1.80;1.70;;;;;;;;;;5061742;28;20230;-74
2022/10/01 07:56:15;;;;;;;1.40;1.30;;;;;;;;;;5048195;28;20202;-74
2022/10/01 07:58:41;;;;;;;1.67;1.40;;;;;;;;;;5049901;28;20175;-74
2022/10/01 08:01:06;;;;;;;1.50;1.30;;;;;;;;;;5046453;28;20203;-74
2022/10/01 08:03:32;;;;;;;1.20;1.10;;;;;;;;;;5040971;28;20258;-74
2022/10/01 08:05:57;;;;;;;1.50;1.40;;;;;;;;;;5045892;28;20203;-74
2022/10/01 08:08:22;;;;;;;1.50;1.30;;;;;;;;;;5039776;28;20269;-72
2022/10/01 08:10:49;;;;;;;1.30;1.20;;;;;;;;;;5045039;28;20224;-74
2022/10/01 08:13:15;;;;;;;1.37;1.27;;;;;;;;;;5048311;28;20185;-74
2022/10/01 08:15:41;;;;;;;2.07;1.33;;;;;;;;;;5043809;28;20200;-74
2022/10/01 08:18:07;;;;;;;1.47;1.37;;;;;;;;;;5047598;28;20185;-74
2022/10/01 08:20:32;;;;;;;1.47;1.30;;;;;;;;;;5060945;28;20221;-74
2022/10/01 08:23:01;;;;;;;1.20;1.10;;;;;;;;;;5041745;28;20500;-74
2022/10/01 08:25:26;;;;;;;1.30;1.20;;;;;;;;;;5045172;28;20185;-74
2022/10/01 08:27:52;;;;;;;1.23;1.07;;;;;;;;;;5061455;28;20177;-74
2022/10/01 08:30:17;;;;;;;1.07;1.07;;;;;;;;;;5043677;28;20178;-74
2022/10/01 08:32:42;;;;;;;0.90;0.90;;;;;;;;;;5052058;28;20185;-74
2022/10/01 08:35:07;;;;;;;1.00;1.00;;;;;;;;;;5048681;28;20183;-74
2022/10/01 08:37:33;;;;;;;1.07;1.03;;;;;;;;;;5050841;28;20178;-74
2022/10/01 08:39:58;;;;;;;0.90;0.90;;;;;;;;;;5043515;28;20268;-74
2022/10/01 08:42:38;;;;;;;2.23;2.03;;;;;;;;;;5040307;28;20232;-74
2022/10/01 08:45:15;;;;;;;3.63;3.27;;;;;;;;;;5052799;28;20187;-74
2022/10/01 08:47:48;;;;;;;2.47;2.27;;;;;;;;;;5045703;28;20181;-74
2022/10/01 08:50:18;;;;;;;1.33;1.00;;;;;;;;;;5040956;28;20179;-74
2022/10/01 08:52:50;;;;;;;1.70;1.60;;;;;;;;;;5047190;28;20184;-74
2022/10/01 08:55:18;;;;;;;1.70;1.60;;;;;;;;;;5066121;28;20223;-74
2022/10/01 08:57:55;;;;;;;2.60;1.33;;;;;;;;;;5041760;28;20212;-74
2022/10/01 09:00:21;;;;;;;2.53;2.33;;;;;;;;;;5043816;28;20208;-74
2022/10/01 09:02:47;;;;;;;1.60;1.50;;;;;;;;;;5053063;28;20203;-74
2022/10/01 09:05:15;;;;;;;1.00;1.00;;;;;;;;;;5042496;28;20188;-74
2022/10/01 09:07:43;;;;;;;0.87;0.87;;;;;;;;;;5044488;28;20178;-74
2022/10/01 09:10:27;;;;;;;2.00;1.20;;;;;;;;;;5062521;28;20181;-74
2022/10/01 09:12:52;;;;;;;1.27;1.17;;;;;;;;;;5044961;28;20174;-74
2022/10/01 09:15:27;;;;;;;0.87;0.87;;;;;;;;;;5043845;28;20254;-75
2022/10/01 09:18:10;;;;;;;0.90;0.90;;;;;;;;;;5047772;28;20230;-75
2022/10/01 09:20:40;;;;;;;5.40;4.70;;;;;;;;;;5043419;28;20220;-74
2022/10/01 09:23:13;;;;;;;1.43;1.33;;;;;;;;;;5045492;28;20199;-75
2022/10/01 09:25:39;;;;;;;1.60;1.47;;;;;;;;;;5048378;28;20173;-75
2022/10/01 09:28:14;;;;;;;1.50;1.40;;;;;;;;;;5046973;28;20173;-74
2022/10/01 09:30:50;;;;;;;1.40;1.30;;;;;;;;;;5047221;28;20185;-74
2022/10/01 09:33:19;;;;;;;2.27;1.47;;;;;;;;;;5059831;28;20187;-74
2022/10/01 09:35:44;;;;;;;1.67;1.57;;;;;;;;;;5044745;28;20189;-74
2022/10/01 09:38:21;;;;;;;1.30;1.20;;;;;;;;;;5044658;28;20174;-74
2022/10/01 09:40:50;;;;;;;1.30;1.20;;;;;;;;;;5054249;28;20197;-74
2022/10/01 09:45:43;;;;;;;1.60;1.50;;;;;;;;;;5021850;28;20249;-75
2022/10/01 09:50:57;;;;;;;1.20;1.10;;;;;;;;;;5439703;22;20230;-79
2022/10/01 09:53:53;;;;;;;2.27;2.17;;;;;;;;;;4982731;28;20257;-79
2022/10/01 09:56:22;;;;;;;1.10;1.10;;;;;;;;;;4945639;28;20192;-79
2022/10/01 09:58:51;;;;;;;3.80;2.40;;;;;;;;;;4982054;28;20298;-80
2022/10/01 10:01:20;;;;;;;1.90;1.80;;;;;;;;;;4980125;28;20305;-79
2022/10/01 10:03:53;;;;;;;1.70;1.00;;;;;;;;;;4978629;28;20302;-80
2022/10/01 10:06:22;;;;;;;1.60;1.50;;;;;;;;;;5000411;28;20188;-78
2022/10/01 10:08:48;;;;;;;8.60;6.20;;;;;;;;;;4993096;28;20185;-80
2022/10/01 10:11:19;;;;;;;1.37;1.27;;;;;;;;;;4979480;28;20222;-79
2022/10/01 10:13:48;;;;;;;1.50;1.40;;;;;;;;;;4992600;28;20183;-79
2022/10/01 10:16:20;;;;;;;1.50;1.40;;;;;;;;;;4986690;28;20182;-80
2022/10/01 10:18:50;;;;;;;1.57;1.47;;;;;;;;;;4977730;28;20178;-80
2022/10/01 10:21:18;;;;;;;1.57;1.47;;;;;;;;;;4983314;28;20186;-80
2022/10/01 10:23:54;;;;;;;2.23;2.03;;;;;;;;;;4992101;28;20569;-79
2022/10/01 10:26:30;;;;;;;1.83;1.73;;;;;;;;;;4997222;28;20229;-78
2022/10/01 10:28:56;;;;;;;0.80;0.80;;;;;;;;;;4982688;28;20179;-78
2022/10/01 10:31:23;;;;;;;1.70;1.60;;;;;;;;;;4980793;28;20217;-79
2022/10/01 10:33:54;;;;;;;1.40;1.30;;;;;;;;;;4994829;28;20253;-80
2022/10/01 10:36:21;;;;;;;0.70;0.70;;;;;;;;;;4976637;28;20204;-79
2022/10/01 10:38:52;;;;;;;2.30;1.90;;;;;;;;;;4991555;28;20180;-79
2022/10/01 10:41:20;;;;;;;1.60;1.50;;;;;;;;;;4982460;28;20507;-79
2022/10/01 10:43:47;;;;;;;1.40;1.30;;;;;;;;;;4976581;28;20183;-80
2022/10/01 10:46:20;;;;;;;1.33;1.23;;;;;;;;;;4989324;28;20256;-80
2022/10/01 10:48:48;;;;;;;1.20;1.20;;;;;;;;;;4976836;28;20197;-79
2022/10/01 10:51:13;;;;;;;2.80;1.10;;;;;;;;;;4978102;28;20235;-79
2022/10/01 10:53:42;;;;;;;1.90;1.70;;;;;;;;;;4977493;28;20215;-77
2022/10/01 10:56:21;;;;;;;0.90;0.90;;;;;;;;;;4976198;28;20336;-77
2022/10/01 10:58:47;;;;;;;1.40;1.30;;;;;;;;;;4973552;28;20291;-77
2022/10/01 11:01:16;;;;;;;1.77;1.67;;;;;;;;;;4979609;28;20184;-77
2022/10/01 11:04:02;;;;;;;0.90;0.90;;;;;;;;;;4979967;28;20192;-77
2022/10/01 11:06:29;;;;;;;0.90;0.90;;;;;;;;;;4980123;28;20458;-77
2022/10/01 11:08:58;;;;;;;0.70;0.70;;;;;;;;;;4977539;28;20204;-77
2022/10/01 11:11:39;;;;;;;1.30;1.20;;;;;;;;;;4998536;28;20212;-77
2022/10/01 11:14:17;;;;;;;4.23;3.30;;;;;;;;;;4982019;28;20387;-77
2022/10/01 11:16:58;;;;;;;2.20;2.00;;;;;;;;;;4974898;28;20301;-77
2022/10/01 11:19:43;;;;;;;1.00;1.00;;;;;;;;;;4980299;28;20246;-77
2022/10/01 11:22:17;;;;;;;1.57;1.43;;;;;;;;;;4975072;28;20202;-77
2022/10/01 11:25:01;;;;;;;0.60;0.60;;;;;;;;;;4980130;28;20187;-77
2022/10/01 11:27:31;;;;;;;0.97;0.97;;;;;;;;;;4978846;28;20183;-77
2022/10/01 11:30:02;;;;;;;2.70;2.50;;;;;;;;;;4971969;28;20201;-77
2022/10/01 11:32:36;;;;;;;0.60;0.60;;;;;;;;;;4977729;28;20224;-77
2022/10/01 11:35:20;;;;;;;1.00;1.00;;;;;;;;;;4976443;28;20183;-77
2022/10/01 11:37:52;;;;;;;1.00;1.00;;;;;;;;;;4979681;28;20188;-77
2022/10/01 11:40:23;;;;;;;1.87;1.77;;;;;;;;;;4978461;28;20195;-77
2022/10/01 11:42:50;;;;;;;3.17;2.90;;;;;;;;;;4993814;28;20183;-78
2022/10/01 11:45:25;;;;;;;1.20;1.20;;;;;;;;;;4977147;28;20204;-77
2022/10/01 11:48:03;;;;;;;0.93;0.93;;;;;;;;;;4990400;28;20192;-77
2022/10/01 11:50:36;;;;;;;0.90;0.90;;;;;;;;;;4978483;28;20252;-77
2022/10/01 11:53:19;;;;;;;1.40;1.30;;;;;;;;;;4978530;28;20328;-77
2022/10/01 11:58:52;;;;;;;1.80;1.70;;;;;;;;;;4979390;28;20191;-77
2022/10/01 12:01:18;;;;;;;2.20;2.10;;;;;;;;;;4980249;28;20198;-78
2022/10/01 12:03:52;;;;;;;0.70;0.70;;;;;;;;;;4981039;28;20211;-78
2022/10/01 12:06:29;;;;;;;0.60;0.60;;;;;;;;;;4980276;28;20175;-77
2022/10/01 12:09:06;;;;;;;0.70;0.70;;;;;;;;;;4983803;28;20184;-77
2022/10/01 12:11:37;;;;;;;1.00;1.00;;;;;;;;;;4988104;28;20222;-77
2022/10/01 12:14:11;;;;;;;1.07;0.70;;;;;;;;;;4983529;28;20381;-77
2022/10/01 12:16:41;;;;;;;0.60;0.60;;;;;;;;;;4980688;28;20184;-77
2022/10/01 12:19:20;;;;;;;1.37;1.10;;;;;;;;;;4983372;28;20732;-77
2022/10/01 12:21:49;;;;;;;0.67;0.67;;;;;;;;;;4975728;28;20168;-77
2022/10/01 12:24:14;;;;;;;2.57;2.37;;;;;;;;;;4984384;28;20289;-77
2022/10/01 12:26:45;;;;;;;1.57;1.30;;;;;;;;;;4990924;28;20281;-77
2022/10/01 12:29:13;;;;;;;0.93;0.77;;;;;;;;;;4979882;28;20176;-77
2022/10/01 12:31:41;;;;;;;1.30;1.27;;;;;;;;;;4981963;28;20694;-78
2022/10/01 12:34:32;;;;;;;1.30;1.23;;;;;;;;;;4980071;28;20188;-77
2022/10/01 12:37:16;;;;;;;1.83;1.20;;;;;;;;;;4980774;28;20181;-82
2022/10/01 12:39:53;;;;;;;1.87;1.50;;;;;;;;;;4977112;28;20184;-84
2022/10/01 12:42:24;;;;;;;1.23;1.20;;;;;;;;;;4978032;28;20570;-83
2022/10/01 12:45:09;;;;;;;1.27;1.03;;;;;;;;;;4975813;28;20224;-83
2022/10/01 12:47:40;;;;;;;1.97;1.40;;;;;;;;;;4977970;28;20239;-84
2022/10/01 12:50:10;;;;;;;1.67;1.20;;;;;;;;;;4986795;28;20493;-81
2022/10/01 12:52:38;;;;;;;1.10;0.90;;;;;;;;;;4980583;28;20234;-83
2022/10/01 12:55:03;;;;;;;1.30;1.20;;;;;;;;;;4980196;28;20192;-83
2022/10/01 12:57:50;;;;;;;1.70;1.60;;;;;;;;;;4979241;28;20195;-83
2022/10/01 13:00:16;;;;;;;0.77;0.77;;;;;;;;;;4992564;28;20199;-84
2022/10/01 13:03:00;;;;;;;1.20;1.17;;;;;;;;;;4978335;28;20181;-84
2022/10/01 13:05:44;;;;;;;0.80;0.80;;;;;;;;;;4978926;28;20187;-83
2022/10/01 13:08:09;;;;;;;4.57;4.20;;;;;;;;;;4978117;28;20244;-84
2022/10/01 13:10:37;;;;;;;0.97;0.90;;;;;;;;;;4977557;28;20270;-83
2022/10/01 13:13:20;;;;;;;1.70;1.03;;;;;;;;;;4978140;28;20268;-84
2022/10/01 13:15:48;;;;;;;0.60;0.60;;;;;;;;;;4974162;28;20287;-84
2022/10/01 13:18:16;;;;;;;2.40;1.53;;;;;;;;;;4991043;28;20196;-83
2022/10/01 13:21:07;;;;;;;1.07;0.80;;;;;;;;;;4974001;28;20268;-83
2022/10/01 13:23:39;;;;;;;3.43;0.90;;;;;;;;;;4970874;28;20193;-83
2022/10/01 13:26:10;;;;;;;1.10;1.10;;;;;;;;;;4975187;28;20186;-84
2022/10/01 13:28:54;;;;;;;2.80;2.57;;;;;;;;;;4975734;28;20190;-84
2022/10/01 13:31:30;;;;;;;1.27;1.17;;;;;;;;;;4988939;28;20216;-83
2022/10/01 13:33:56;;;;;;;1.10;1.00;;;;;;;;;;4993549;28;20176;-84
2022/10/01 13:36:31;;;;;;;1.23;0.77;;;;;;;;;;4975445;28;20286;-84
2022/10/01 13:38:57;;;;;;;0.80;0.80;;;;;;;;;;4976518;28;20168;-84
2022/10/01 13:41:24;;;;;;;2.10;1.90;;;;;;;;;;4978204;28;20196;-84
2022/10/01 13:43:58;;;;;;;1.10;1.00;;;;;;;;;;4976339;28;20189;-83
2022/10/01 13:46:29;;;;;;;1.40;1.20;;;;;;;;;;4979368;28;20244;-83
2022/10/01 13:48:56;;;;;;;3.40;2.90;;;;;;;;;;4981842;28;20467;-83
2022/10/01 13:51:21;;;;;;;2.17;1.50;;;;;;;;;;4976308;28;20523;-83
2022/10/01 13:53:50;;;;;;;3.87;2.50;;;;;;;;;;4978552;28;20271;-84
2022/10/01 13:56:30;;;;;;;3.00;1.50;;;;;;;;;;4978641;28;20181;-83
2022/10/01 13:58:55;;;;;;;2.80;1.97;;;;;;;;;;4976294;28;20177;-83
2022/10/01 14:01:23;;;;;;;2.03;1.60;;;;;;;;;;4978299;28;20214;-83
2022/10/01 14:03:51;;;;;;;1.80;1.10;;;;;;;;;;4983280;28;20452;-83
2022/10/01 14:06:22;;;;;;;2.17;1.97;;;;;;;;;;4981198;28;20190;-83
2022/10/01 14:09:02;;;;;;;2.10;1.87;;;;;;;;;;4986194;28;20186;-83
2022/10/01 14:17:05;;;;;;;4.40;3.03;;;;;;;;;;4987021;28;20327;-84
2022/10/01 14:19:30;;;;;;;1.60;1.47;;;;;;;;;;5001955;28;20174;-83
2022/10/01 14:22:07;;;;;;;4.57;3.13;;;;;;;;;;4987070;28;20190;-84
2022/10/01 14:24:36;;;;;;;3.47;2.47;;;;;;;;;;4992078;28;20206;-83
2022/10/01 14:27:08;;;;;;;6.40;4.03;;;;;;;;;;4990228;28;20211;-84
2022/10/01 14:29:38;;;;;;;4.43;2.43;;;;;;;;;;4988207;28;20205;-83
2022/10/01 14:32:17;;;;;;;5.53;3.47;;;;;;;;;;4991005;28;20265;-83
2022/10/01 14:34:47;;;;;;;4.17;2.80;;;;;;;;;;5001173;28;20173;-83
2022/10/01 14:37:15;;;;;;;3.10;1.80;;;;;;;;;;4996409;28;20304;-83
2022/10/01 14:39:40;;;;;;;2.30;1.40;;;;;;;;;;4987012;28;20183;-83
2022/10/01 14:42:12;;;;;;;3.53;1.90;;;;;;;;;;5002372;28;20181;-84
2022/10/01 14:44:38;;;;;;;3.23;2.50;;;;;;;;;;4983946;28;20189;-83
2022/10/01 14:47:11;;;;;;;3.43;1.73;;;;;;;;;;4985231;28;20187;-83
2022/10/01 14:49:36;;;;;;;3.10;2.07;;;;;;;;;;4990089;28;20206;-84
2022/10/01 14:52:06;;;;;;;1.70;1.30;;;;;;;;;;4984639;28;20237;-83
2022/10/01 14:54:52;;;;;;;4.20;2.27;;;;;;;;;;4985377;28;20193;-83
2022/10/01 14:57:36;;;;;;;3.53;1.57;;;;;;;;;;4987902;28;20186;-83
2022/10/01 15:00:07;;;;;;;1.60;1.50;;;;;;;;;;4987713;28;20178;-84
2022/10/01 15:02:32;;;;;;;2.40;1.83;;;;;;;;;;4984800;28;20177;-83
2022/10/01 15:04:57;;;;;;;1.60;1.50;;;;;;;;;;4989540;28;20180;-83
2022/10/01 15:07:24;;;;;;;4.27;3.07;;;;;;;;;;4986542;28;20200;-83
2022/10/01 15:09:50;;;;;;;2.60;1.93;;;;;;;;;;4983944;28;20249;-83